Time;durP1;ratioP1;P1;durP2;ratioP2;P2;SDS_P1;SDS_P2;PMS_P1;PMS_P2;Temp;Humidity;BMP_temperature;BMP_pressure;BME280_temperature;BME280_humidity;BME280_pressure;Samples;Min_cycle;Max_cycle;Signal;HPM_P1;HPM_P2
2021/06/18 00:00:28;;;;;;;16.40;9.47;;;21.20;99.90;;;22.11;100.00;97854.97;5068758;28;20494;-79
2021/06/18 00:02:58;;;;;;;11.47;9.37;;;21.00;99.90;;;21.97;100.00;97852.78;5063830;28;21083;-79
2021/06/18 00:05:26;;;;;;;13.10;10.20;;;20.80;99.90;;;21.97;100.00;97860.00;5066024;28;20541;-79
2021/06/18 00:07:56;;;;;;;14.30;9.80;;;20.90;99.90;;;22.08;100.00;97862.41;5065965;28;22649;-79
2021/06/18 00:10:27;;;;;;;20.83;10.40;;;21.00;99.90;;;22.08;100.00;97859.75;5064350;28;20460;-79
2021/06/18 00:12:56;;;;;;;12.53;9.83;;;21.00;99.90;;;22.00;100.00;97862.16;5065713;28;20860;-79
2021/06/18 00:15:26;;;;;;;10.50;8.60;;;20.90;99.90;;;22.09;100.00;97860.53;5065064;28;21055;-79
2021/06/18 00:17:54;;;;;;;13.87;9.07;;;21.00;99.90;;;21.86;100.00;97861.84;5067535;28;20592;-79
2021/06/18 00:20:23;;;;;;;17.43;10.00;;;20.70;99.90;;;21.90;100.00;97868.22;5063165;28;20824;-79
2021/06/18 00:22:52;;;;;;;12.33;9.43;;;20.80;99.90;;;22.07;100.00;97860.03;5064461;28;20460;-79
2021/06/18 00:25:22;;;;;;;25.43;9.67;;;21.00;99.90;;;21.98;100.00;97858.94;5067447;28;20455;-79
2021/06/18 00:27:52;;;;;;;19.50;10.93;;;20.90;99.90;;;22.03;100.00;97866.94;5064821;28;20460;-79
2021/06/18 00:30:21;;;;;;;11.67;9.47;;;21.00;99.90;;;21.89;100.00;97860.50;5063606;28;20471;-79
2021/06/18 00:32:50;;;;;;;18.77;9.20;;;20.80;99.90;;;21.87;100.00;97862.59;5063729;28;20460;-79
2021/06/18 00:35:18;;;;;;;14.93;9.87;;;20.80;99.90;;;21.70;100.00;97867.34;5065925;28;20521;-79
2021/06/18 00:37:47;;;;;;;20.23;10.83;;;20.60;99.90;;;21.70;100.00;97867.34;5067347;28;20529;-79
2021/06/18 00:40:16;;;;;;;20.00;11.10;;;20.60;99.90;;;21.70;100.00;97881.47;5066063;28;21267;-79
2021/06/18 00:42:47;;;;;;;16.40;9.67;;;20.60;99.90;;;21.80;100.00;97878.03;5066374;28;20485;-79
2021/06/18 00:45:16;;;;;;;13.77;9.90;;;20.70;99.90;;;21.82;100.00;97874.06;5065681;28;20468;-79
2021/06/18 00:47:50;;;;;;;17.60;9.77;;;20.70;99.90;;;21.70;100.00;97886.00;5066574;28;20495;-79
2021/06/18 00:50:19;;;;;;;14.23;9.93;;;20.60;99.90;;;21.58;100.00;97883.59;5064730;28;20498;-79
2021/06/18 00:52:49;;;;;;;12.70;10.17;;;20.40;99.90;;;21.50;100.00;97884.88;5063452;28;21018;-79
2021/06/18 00:55:18;;;;;;;13.30;11.30;;;20.40;99.90;;;21.47;100.00;97888.06;5064199;28;20460;-79
2021/06/18 00:57:49;;;;;;;15.03;9.57;;;20.40;99.90;;;21.67;100.00;97892.66;5067835;28;20448;-79
2021/06/18 01:00:19;;;;;;;16.83;9.60;;;20.60;99.90;;;21.79;100.00;97889.75;5064720;28;20492;-79
2021/06/18 01:02:48;;;;;;;14.40;9.83;;;20.70;99.90;;;21.80;100.00;97888.69;5067195;28;20476;-79
2021/06/18 01:05:21;;;;;;;10.80;9.47;;;20.70;99.90;;;21.70;100.00;97893.97;5066057;28;20506;-78
2021/06/18 01:08:02;;;;;;;15.10;9.97;;;20.60;99.90;;;21.50;100.00;97892.88;5064893;28;21223;-78
2021/06/18 01:10:46;;;;;;;13.53;9.70;;;20.40;99.90;;;21.42;100.00;97888.03;5064150;28;20456;-79
2021/06/18 01:13:33;;;;;;;12.00;9.70;;;20.30;99.90;;;21.62;100.00;97889.19;5063776;28;20472;-79
2021/06/18 01:16:10;;;;;;;16.03;10.50;;;20.50;99.90;;;21.47;100.00;97889.91;5062271;28;20460;-79
2021/06/18 01:18:46;;;;;;;14.40;10.23;;;20.40;99.90;;;21.38;100.00;97880.84;5065161;28;20989;-78
2021/06/18 01:21:26;;;;;;;14.93;9.73;;;20.30;99.90;;;21.59;100.00;97885.97;5066478;28;20541;-79
2021/06/18 01:24:08;;;;;;;15.10;9.50;;;20.50;99.90;;;21.56;100.00;97893.66;5065035;28;20460;-79
2021/06/18 01:27:05;;;;;;;14.00;9.37;;;20.50;99.90;;;21.44;100.00;97885.94;5066333;28;21010;-79
2021/06/18 01:29:41;;;;;;;14.20;9.70;;;20.40;99.90;;;21.58;100.00;97879.06;5062249;28;20517;-79
2021/06/18 01:32:18;;;;;;;16.07;10.70;;;20.50;99.90;;;21.59;100.00;97872.66;5063340;28;20513;-79
2021/06/18 01:34:50;;;;;;;13.57;9.30;;;20.50;99.90;;;21.43;100.00;97873.69;5057937;28;20982;-79
2021/06/18 01:37:25;;;;;;;15.13;10.07;;;20.40;99.90;;;21.41;100.00;97864.38;5062895;28;20530;-79
2021/06/18 01:39:57;;;;;;;22.43;9.93;;;20.40;99.90;;;21.11;100.00;97870.34;5063794;28;20464;-79
2021/06/18 01:42:28;;;;;;;24.93;10.70;;;20.00;99.90;;;21.21;100.00;97870.38;5066058;28;20464;-79
2021/06/18 01:44:59;;;;;;;21.60;10.40;;;20.10;99.90;;;21.32;100.00;97860.59;5068414;28;20460;-79
2021/06/18 01:47:28;;;;;;;11.43;9.87;;;20.20;99.90;;;21.36;100.00;97862.47;5067598;28;21065;-79
2021/06/18 01:50:00;;;;;;;18.60;10.40;;;20.30;99.90;;;21.47;100.00;97858.00;5070416;28;21113;-79
2021/06/18 01:52:31;;;;;;;11.57;9.50;;;20.50;99.90;;;21.40;100.00;97862.75;5069884;28;20476;-79
2021/06/18 01:55:06;;;;;;;13.50;9.80;;;20.30;99.90;;;21.32;100.00;97871.22;5066201;28;20497;-79
2021/06/18 01:57:37;;;;;;;17.30;9.30;;;20.20;99.90;;;21.29;100.00;97869.91;5062425;28;20455;-79
2021/06/18 02:00:10;;;;;;;20.90;10.63;;;20.20;99.90;;;21.43;100.00;97868.34;5067556;28;20506;-79
2021/06/18 02:06:49;;;;;;;18.13;9.87;;;20.40;99.90;;;21.19;100.00;97899.13;5066662;28;20541;-79
2021/06/18 02:09:21;;;;;;;12.63;10.00;;;20.10;99.90;;;21.32;100.00;97893.31;5067016;28;20464;-79
2021/06/18 02:11:50;;;;;;;13.53;9.63;;;20.30;99.90;;;21.35;100.00;97895.44;5069073;28;20475;-79
2021/06/18 02:14:21;;;;;;;12.57;10.03;;;20.40;99.90;;;21.37;100.00;97895.22;5066863;28;20460;-79
2021/06/18 02:16:56;;;;;;;11.43;8.60;;;20.40;99.90;;;21.41;100.00;97883.78;5068980;28;20846;-79
2021/06/18 02:19:25;;;;;;;14.47;9.80;;;20.40;99.90;;;21.26;100.00;97890.91;5068353;28;20601;-79
2021/06/18 02:21:58;;;;;;;13.93;9.77;;;20.20;99.90;;;21.27;100.00;97879.19;5068590;28;20499;-79
2021/06/18 02:24:32;;;;;;;14.10;9.20;;;20.30;99.90;;;21.31;100.00;97886.38;5068848;28;20770;-79
2021/06/18 02:27:04;;;;;;;15.87;10.30;;;20.30;99.90;;;21.14;100.00;97883.13;5068800;28;21142;-79
2021/06/18 02:29:33;;;;;;;14.63;10.77;;;20.10;99.90;;;21.06;100.00;97879.06;5064433;28;20452;-79
2021/06/18 02:32:07;;;;;;;16.53;10.27;;;20.00;99.90;;;21.00;100.00;97884.59;5063539;28;20459;-79
2021/06/18 02:34:38;;;;;;;18.13;10.30;;;19.90;99.90;;;21.04;100.00;97888.34;5068072;28;20458;-78
2021/06/18 02:37:10;;;;;;;13.90;10.90;;;19.90;99.90;;;21.05;100.00;97881.97;5068689;28;20451;-82
2021/06/18 02:39:39;;;;;;;11.97;10.50;;;20.00;99.90;;;20.80;100.00;97887.13;5068700;28;20521;-79
2021/06/18 02:42:09;;;;;;;13.13;10.17;;;19.70;99.90;;;20.77;100.00;97891.13;5058765;28;20549;-79
2021/06/18 02:44:39;;;;;;;12.67;9.90;;;19.70;99.90;;;20.75;100.00;97887.94;5067789;28;20928;-78
2021/06/18 02:47:18;;;;;;;11.10;9.03;;;19.70;99.90;;;20.69;100.00;97890.81;5068745;28;20487;-79
2021/06/18 02:49:59;;;;;;;11.70;9.23;;;19.60;99.90;;;20.77;100.00;97885.00;5069309;28;20489;-79
2021/06/18 02:52:47;;;;;;;12.40;9.97;;;19.70;99.90;;;20.81;100.00;97891.41;5061787;28;20452;-79
2021/06/18 02:55:25;;;;;;;13.93;9.40;;;19.80;99.90;;;20.89;100.00;97885.63;5062454;28;20510;-79
2021/06/18 02:58:05;;;;;;;19.03;9.67;;;19.90;99.90;;;20.90;100.00;97887.19;5065911;28;20456;-79
2021/06/18 03:00:35;;;;;;;13.73;9.60;;;19.90;99.90;;;20.75;100.00;97889.78;5063675;28;20463;-79
2021/06/18 03:03:08;;;;;;;12.90;9.80;;;19.60;99.90;;;20.79;100.00;97885.56;5064472;28;20871;-79
2021/06/18 03:05:39;;;;;;;17.90;11.03;;;19.70;99.90;;;20.71;100.00;97883.38;5064125;28;20517;-82
2021/06/18 03:08:12;;;;;;;14.47;11.50;;;19.60;99.90;;;20.77;100.00;97887.66;5062541;28;20550;-80
2021/06/18 03:10:50;;;;;;;17.27;9.70;;;19.60;99.90;;;20.74;100.00;97880.19;5065522;28;21105;-79
2021/06/18 03:13:26;;;;;;;13.33;9.60;;;19.60;99.90;;;20.74;100.00;97885.50;5059943;28;20461;-79
2021/06/18 03:15:56;;;;;;;12.07;9.70;;;19.60;99.90;;;20.74;100.00;97891.63;5069297;28;20456;-79
2021/06/18 03:18:27;;;;;;;12.13;9.63;;;19.60;99.90;;;20.79;100.00;97889.00;5067216;28;20840;-79
2021/06/18 03:21:00;;;;;;;13.03;10.07;;;19.70;99.90;;;20.80;100.00;97884.47;5068292;28;20468;-79
2021/06/18 03:23:31;;;;;;;17.30;10.70;;;19.70;99.90;;;20.86;100.00;97888.78;5066210;28;20506;-79
2021/06/18 03:26:04;;;;;;;16.80;10.27;;;19.80;99.90;;;20.79;100.00;97877.59;5063966;28;20521;-80
2021/06/18 03:28:34;;;;;;;19.30;12.87;;;19.70;99.90;;;20.79;100.00;97880.25;5065668;28;20886;-79
2021/06/18 03:31:08;;;;;;;14.87;10.63;;;19.80;99.90;;;20.81;100.00;97880.78;5061101;28;21010;-79
2021/06/18 03:33:42;;;;;;;11.53;10.03;;;19.80;99.90;;;20.83;100.00;97868.81;5059606;28;20894;-79
2021/06/18 03:36:11;;;;;;;16.43;9.80;;;19.80;99.90;;;20.86;100.00;97873.63;5065248;28;20452;-80
2021/06/18 03:38:43;;;;;;;22.03;10.93;;;19.90;99.90;;;20.92;100.00;97872.63;5067235;28;20562;-79
2021/06/18 03:41:12;;;;;;;11.33;10.23;;;19.80;99.90;;;20.90;100.00;97880.03;5066302;28;20460;-81
2021/06/18 03:43:41;;;;;;;20.30;12.47;;;19.80;99.90;;;20.85;100.00;97887.19;5068108;28;20538;-80
2021/06/18 03:46:10;;;;;;;14.23;10.20;;;19.90;99.90;;;20.68;100.00;97881.22;5068110;28;20432;-79
2021/06/18 03:48:43;;;;;;;26.77;10.83;;;19.60;99.90;;;20.78;100.00;97870.66;5068583;28;20577;-79
2021/06/18 03:51:15;;;;;;;17.07;11.20;;;19.70;99.90;;;20.80;100.00;97879.16;5067317;28;20499;-79
2021/06/18 03:53:44;;;;;;;16.97;10.70;;;19.70;99.90;;;20.81;100.00;97873.59;5068970;28;20919;-79
2021/06/18 03:56:13;;;;;;;15.23;10.00;;;19.70;99.90;;;20.85;100.00;97876.56;5068482;28;20440;-79
2021/06/18 03:58:43;;;;;;;20.50;10.50;;;19.80;99.90;;;20.84;100.00;97880.25;5066589;28;20466;-80
2021/06/18 04:01:13;;;;;;;39.20;17.17;;;19.80;99.90;;;20.68;100.00;97878.56;5064722;28;20464;-81
2021/06/18 04:03:48;;;;;;;17.70;10.83;;;19.60;99.90;;;20.73;100.00;97884.72;5062583;28;20550;-78
2021/06/18 04:06:18;;;;;;;15.47;10.37;;;19.60;99.90;;;20.84;100.00;97882.91;5067683;28;20443;-79
2021/06/18 04:08:49;;;;;;;14.93;11.53;;;19.70;99.90;;;20.82;100.00;97898.34;5067839;28;20495;-79
2021/06/18 04:11:18;;;;;;;12.93;9.73;;;19.70;99.90;;;20.81;100.00;97886.91;5066819;28;20490;-79
2021/06/18 04:13:46;;;;;;;12.17;9.90;;;19.70;99.90;;;20.77;100.00;97883.16;5067582;28;20480;-79
2021/06/18 04:16:15;;;;;;;14.40;11.17;;;19.70;99.90;;;20.80;100.00;97889.81;5068186;28;20913;-79
2021/06/18 04:18:48;;;;;;;12.87;9.80;;;19.70;99.90;;;20.80;100.00;97890.59;5068423;28;20440;-82
2021/06/18 04:21:20;;;;;;;15.00;11.23;;;19.80;99.90;;;20.89;100.00;97890.94;5069411;28;20456;-79
2021/06/18 04:23:48;;;;;;;12.43;10.17;;;19.90;99.90;;;20.92;100.00;97895.75;5068954;28;20463;-78
2021/06/18 04:26:19;;;;;;;13.87;10.00;;;19.80;99.90;;;20.84;100.00;97894.34;5069110;28;21069;-78
2021/06/18 04:28:48;;;;;;;16.63;10.70;;;19.80;99.90;;;20.86;100.00;97886.13;5069019;28;20500;-78
2021/06/18 04:31:17;;;;;;;20.97;11.47;;;19.90;99.90;;;20.88;100.00;97899.97;5068848;28;20440;-78
2021/06/18 04:33:47;;;;;;;13.30;11.17;;;19.90;99.90;;;20.96;100.00;97883.53;5068917;28;20511;-79
2021/06/18 04:36:23;;;;;;;17.33;10.63;;;20.00;99.90;;;21.06;100.00;97889.72;5069665;28;20486;-79
2021/06/18 04:38:54;;;;;;;17.83;11.03;;;20.10;99.90;;;21.12;100.00;97887.91;5070884;28;20448;-79
2021/06/18 04:41:24;;;;;;;14.10;10.73;;;20.20;99.90;;;21.14;100.00;97890.31;5070770;28;20506;-79
2021/06/18 04:43:54;;;;;;;18.40;10.10;;;20.10;99.90;;;21.22;100.00;97890.63;5069491;28;20456;-78
2021/06/18 04:46:22;;;;;;;11.57;9.33;;;20.20;99.90;;;21.29;100.00;97891.19;5069013;28;20452;-79
2021/06/18 04:48:52;;;;;;;15.50;10.10;;;20.20;99.90;;;21.35;100.00;97887.47;5068834;28;20504;-78
2021/06/18 04:51:21;;;;;;;13.33;10.90;;;20.30;99.90;;;21.35;100.00;97878.69;5068636;28;20458;-79
2021/06/18 04:53:55;;;;;;;16.20;10.57;;;20.30;99.90;;;21.32;100.00;97887.19;5068993;28;20448;-79
2021/06/18 04:56:24;;;;;;;16.13;10.43;;;20.30;99.90;;;21.36;100.00;97888.28;5067176;28;20444;-78
2021/06/18 04:58:52;;;;;;;20.17;10.53;;;20.40;99.90;;;21.40;100.00;97879.53;5065117;28;20440;-78
2021/06/18 05:01:21;;;;;;;10.87;9.70;;;20.40;99.90;;;21.41;100.00;97878.47;5067864;28;20475;-78
2021/06/18 05:03:50;;;;;;;11.70;9.37;;;20.40;99.90;;;21.36;100.00;97870.47;5068487;28;20448;-79
2021/06/18 05:06:20;;;;;;;14.07;9.90;;;20.40;99.90;;;21.38;100.00;97863.00;5068743;28;20543;-78
2021/06/18 05:08:48;;;;;;;19.93;9.90;;;20.40;99.90;;;21.41;100.00;97865.16;5068622;28;20552;-78
2021/06/18 05:11:20;;;;;;;16.93;9.93;;;20.50;99.90;;;21.48;100.00;97865.72;5069145;28;20940;-78
2021/06/18 05:13:48;;;;;;;17.57;9.80;;;20.60;99.90;;;21.57;100.00;97858.03;5068219;28;20491;-79
2021/06/18 05:16:17;;;;;;;18.20;10.27;;;20.70;99.90;;;21.61;100.00;97853.78;5068596;28;21078;-78
2021/06/18 05:18:46;;;;;;;12.37;9.83;;;20.70;99.90;;;21.74;100.00;97841.81;5067584;28;20497;-78
2021/06/18 05:21:15;;;;;;;14.00;9.50;;;20.80;99.90;;;21.77;100.00;97844.75;5067370;28;20982;-78
2021/06/18 05:23:51;;;;;;;13.70;10.43;;;20.80;99.90;;;21.85;100.00;97827.47;5070290;28;20585;-79
2021/06/18 05:26:20;;;;;;;14.53;8.80;;;20.90;99.90;;;21.92;100.00;97822.72;5069240;28;20456;-78
2021/06/18 05:28:48;;;;;;;15.13;10.37;;;20.90;99.90;;;22.02;100.00;97828.03;5066835;28;20476;-78
2021/06/18 05:31:17;;;;;;;19.53;10.43;;;21.00;99.90;;;22.11;100.00;97809.69;5068736;28;20441;-78
2021/06/18 05:33:45;;;;;;;14.97;8.80;;;21.10;99.90;;;22.19;100.00;97806.47;5068639;28;20455;-79
2021/06/18 05:36:14;;;;;;;13.83;8.87;;;21.20;99.90;;;22.29;100.00;97807.25;5068005;28;20440;-78
2021/06/18 05:38:43;;;;;;;15.80;9.90;;;21.30;99.90;;;22.33;100.00;97796.88;5069041;28;20444;-78
2021/06/18 05:41:14;;;;;;;12.53;9.17;;;21.40;99.90;;;22.41;100.00;97797.13;5068294;28;20467;-78
2021/06/18 05:43:42;;;;;;;11.00;8.13;;;21.50;99.90;;;22.46;100.00;97799.78;5065378;28;20462;-79
2021/06/18 05:46:11;;;;;;;19.13;8.50;;;21.60;99.90;;;22.55;100.00;97808.84;5068143;28;20448;-78
2021/06/18 05:48:40;;;;;;;14.97;8.33;;;21.70;99.90;;;22.64;100.00;97817.06;5068608;28;20570;-79
2021/06/18 05:51:08;;;;;;;14.20;7.90;;;21.80;99.90;;;22.74;100.00;97806.41;5068794;28;20537;-79
2021/06/18 05:53:37;;;;;;;15.73;7.77;;;21.80;99.90;;;22.81;100.00;97800.78;5068514;28;20444;-78
2021/06/18 05:56:15;;;;;;;9.10;8.20;;;21.90;99.90;;;22.89;100.00;97814.38;5069147;28;20436;-79
2021/06/18 05:58:45;;;;;;;11.03;7.10;;;22.00;99.90;;;22.98;100.00;97814.59;5062759;28;20589;-79
2021/06/18 06:01:18;;;;;;;13.87;9.03;;;22.10;99.90;;;23.06;100.00;97819.38;5066627;28;20514;-78
2021/06/18 06:04:01;;;;;;;14.93;8.50;;;22.20;99.90;;;23.16;100.00;97822.00;5066828;28;20456;-79
2021/06/18 06:06:31;;;;;;;9.23;8.17;;;22.30;99.90;;;23.21;100.00;97824.66;5066550;28;20834;-78
2021/06/18 06:09:00;;;;;;;19.37;7.70;;;22.30;99.90;;;23.27;100.00;97826.22;5067710;28;20496;-79
2021/06/18 06:11:30;;;;;;;15.70;7.70;;;22.40;99.90;;;23.33;100.00;97822.47;5068046;28;21091;-78
2021/06/18 06:14:01;;;;;;;11.03;7.43;;;22.40;99.90;;;23.37;100.00;97826.19;5066679;28;20460;-79
2021/06/18 06:16:29;;;;;;;10.77;7.80;;;22.50;99.90;;;23.47;100.00;97831.50;5067906;28;20440;-79
2021/06/18 06:18:58;;;;;;;11.07;8.47;;;22.60;99.90;;;23.54;100.00;97834.66;5068365;28;20479;-79
2021/06/18 06:21:28;;;;;;;10.90;7.60;;;22.70;99.90;;;23.62;100.00;97829.81;5061463;28;20436;-79
2021/06/18 06:23:57;;;;;;;8.93;6.83;;;22.70;99.90;;;23.68;100.00;97834.84;5067530;28;20502;-78
2021/06/18 06:26:25;;;;;;;9.73;6.60;;;22.80;99.90;;;23.73;100.00;97836.72;5065705;28;20450;-79
2021/06/18 06:28:55;;;;;;;9.47;7.07;;;22.90;99.90;;;23.76;100.00;97836.16;5067883;28;20541;-78
2021/06/18 06:31:23;;;;;;;12.00;6.63;;;22.90;99.90;;;23.79;100.00;97841.75;5071385;28;20498;-78
2021/06/18 06:33:52;;;;;;;13.70;6.93;;;23.00;99.90;;;23.85;100.00;97845.16;5071524;28;20519;-78
2021/06/18 06:36:20;;;;;;;9.83;7.20;;;23.00;99.90;;;23.91;100.00;97841.41;5070861;28;21270;-78
2021/06/18 06:38:49;;;;;;;13.50;7.00;;;23.10;99.90;;;23.95;100.00;97839.78;5072054;28;20440;-79
2021/06/18 06:41:18;;;;;;;10.40;6.97;;;23.10;99.90;;;23.98;100.00;97842.66;5071898;28;20501;-78
2021/06/18 06:43:46;;;;;;;16.70;6.97;;;23.10;99.90;;;24.02;100.00;97835.69;5071410;28;20444;-79
2021/06/18 06:46:16;;;;;;;12.17;7.30;;;23.10;99.90;;;24.08;100.00;97830.31;5071153;28;20464;-79
2021/06/18 06:48:44;;;;;;;10.90;7.07;;;23.20;99.90;;;24.16;100.00;97833.22;5071291;28;20866;-78
2021/06/18 06:51:13;;;;;;;7.20;6.40;;;23.30;99.90;;;24.22;100.00;97842.00;5069571;28;20976;-79
2021/06/18 06:53:42;;;;;;;8.87;6.83;;;23.30;99.90;;;24.26;100.00;97845.72;5071408;28;20453;-78
2021/06/18 06:56:10;;;;;;;8.97;7.00;;;23.40;99.90;;;24.31;100.00;97849.13;5071447;28;20452;-79
2021/06/18 06:58:39;;;;;;;10.70;7.43;;;23.40;99.90;;;24.38;100.00;97848.81;5070948;28;20441;-78
2021/06/18 07:01:07;;;;;;;9.27;7.27;;;23.40;99.90;;;24.45;100.00;97843.94;5070382;28;20436;-79
2021/06/18 07:03:37;;;;;;;12.50;7.33;;;23.60;99.90;;;24.50;100.00;97847.34;5071542;28;20440;-79
2021/06/18 07:06:07;;;;;;;10.33;6.67;;;23.60;99.90;;;24.57;100.00;97843.56;5070851;28;20480;-79
2021/06/18 07:08:35;;;;;;;13.10;7.00;;;23.70;99.90;;;24.63;100.00;97848.59;5070592;28;20486;-78
2021/06/18 07:11:04;;;;;;;12.97;6.87;;;23.80;99.90;;;24.67;100.00;97851.50;5070599;28;20992;-79
2021/06/18 07:13:33;;;;;;;6.73;5.90;;;23.80;99.90;;;24.72;100.00;97848.75;5066020;28;20456;-79
2021/06/18 07:16:01;;;;;;;9.50;6.50;;;23.90;99.90;;;24.76;100.00;97849.78;5071236;28;20436;-78
2021/06/18 07:18:30;;;;;;;19.13;7.20;;;24.00;99.90;;;24.79;100.00;97854.56;5070958;28;20479;-79
2021/06/18 07:21:00;;;;;;;10.57;6.63;;;24.00;99.90;;;24.82;100.00;97854.00;5070836;28;20802;-79
2021/06/18 07:23:28;;;;;;;9.27;6.63;;;24.00;99.90;;;24.82;100.00;97859.34;5070670;28;20578;-79
2021/06/18 07:25:58;;;;;;;9.33;7.33;;;24.00;99.90;;;24.81;100.00;97855.91;5070867;28;20444;-78
2021/06/18 07:28:27;;;;;;;12.30;5.90;;;24.00;99.90;;;24.79;100.00;97867.94;5070422;28;20850;-78
2021/06/18 07:30:55;;;;;;;14.60;6.50;;;23.90;99.90;;;24.76;100.00;97865.84;5070498;28;20898;-78
2021/06/18 07:33:24;;;;;;;10.07;6.77;;;23.90;99.90;;;24.77;100.00;97867.44;5070257;28;20448;-78
2021/06/18 07:36:07;;;;;;;8.77;5.87;;;23.90;99.90;;;24.74;100.00;97868.03;5072210;28;20448;-79
2021/06/18 07:38:36;;;;;;;9.47;6.80;;;23.80;99.90;;;24.76;100.00;97865.84;5068869;28;20506;-78
2021/06/18 07:41:05;;;;;;;7.47;5.70;;;23.90;99.90;;;24.72;100.00;97870.16;5070102;28;20452;-79
2021/06/18 07:43:33;;;;;;;11.20;6.37;;;23.80;99.90;;;24.73;100.00;97871.75;5070409;28;20459;-79
2021/06/18 07:46:02;;;;;;;8.60;5.70;;;23.80;99.90;;;24.73;100.00;97879.78;5070344;28;20455;-78
2021/06/18 07:48:39;;;;;;;12.00;6.17;;;23.80;99.90;;;24.73;100.00;97885.13;5070469;28;20479;-79
2021/06/18 07:51:10;;;;;;;11.20;6.40;;;23.80;99.90;;;24.80;100.00;97883.72;5070358;28;20500;-79
2021/06/18 07:53:39;;;;;;;8.30;5.57;;;23.90;99.90;;;24.82;100.00;97883.44;5070620;28;20533;-79
2021/06/18 07:56:08;;;;;;;9.57;6.27;;;23.90;99.90;;;24.87;100.00;97884.22;5070881;28;20863;-79
2021/06/18 07:58:39;;;;;;;7.93;5.40;;;24.00;99.90;;;24.95;100.00;97874.78;5070431;28;20440;-79
2021/06/18 08:01:08;;;;;;;9.50;5.43;;;24.10;99.90;;;24.99;100.00;97881.19;5069075;28;20810;-78
2021/06/18 08:03:36;;;;;;;7.70;5.70;;;24.10;99.90;;;25.06;100.00;97878.94;5070332;28;20504;-79
2021/06/18 08:06:05;;;;;;;7.60;5.77;;;24.20;99.90;;;25.18;100.00;97886.56;5069711;28;20460;-79
2021/06/18 08:08:35;;;;;;;7.43;6.20;;;24.30;99.90;;;25.23;100.00;97879.31;5069644;28;20846;-79
2021/06/18 08:11:07;;;;;;;8.33;5.40;;;24.40;99.90;;;25.24;100.00;97866.69;5069791;28;20491;-80
2021/06/18 08:13:50;;;;;;;9.83;6.03;;;24.40;99.90;;;25.28;100.00;97876.56;5067168;28;20449;-79
2021/06/18 08:16:20;;;;;;;14.97;6.00;;;24.40;99.90;;;25.28;100.00;97876.56;5070904;28;20456;-79
2021/06/18 08:18:50;;;;;;;16.20;6.10;;;24.40;99.90;;;25.29;100.00;97880.84;5070166;28;20990;-79
2021/06/18 08:21:18;;;;;;;7.50;5.07;;;24.40;99.90;;;25.31;100.00;97875.19;5069950;28;21005;-79
2021/06/18 08:23:48;;;;;;;12.73;5.70;;;24.50;99.90;;;25.32;100.00;97876.78;5070071;28;20448;-79
2021/06/18 08:26:17;;;;;;;8.37;5.43;;;24.50;99.90;;;25.29;100.00;97875.47;5069693;28;20437;-79
2021/06/18 08:28:45;;;;;;;7.63;5.17;;;24.50;99.90;;;25.29;100.00;97878.16;5069732;28;20479;-78
2021/06/18 08:31:14;;;;;;;10.83;5.60;;;24.50;99.90;;;25.35;100.00;97879.69;5069949;28;20499;-79
2021/06/18 08:33:43;;;;;;;8.97;5.40;;;24.60;99.90;;;25.35;100.00;97884.22;5064910;28;20493;-79
2021/06/18 08:36:14;;;;;;;8.63;5.70;;;24.50;99.90;;;25.35;100.00;97871.66;5069433;28;20444;-80
2021/06/18 08:38:44;;;;;;;9.03;5.33;;;24.50;99.90;;;25.41;100.00;97883.88;5069635;28;20444;-79
2021/06/18 08:41:13;;;;;;;14.47;6.03;;;24.50;99.90;;;25.49;100.00;97883.25;5069314;28;20505;-79
2021/06/18 08:43:42;;;;;;;9.80;5.27;;;24.60;99.90;;;25.56;100.00;97872.22;5068927;28;20513;-79
2021/06/18 08:46:11;;;;;;;8.23;5.33;;;24.60;99.90;;;25.65;100.00;97872.38;5069799;28;20823;-80
2021/06/18 08:48:39;;;;;;;8.87;5.90;;;24.80;99.90;;;25.75;100.00;97873.06;5069428;28;20459;-79
2021/06/18 08:51:08;;;;;;;15.53;6.37;;;24.90;99.90;;;25.83;100.00;97879.63;5068941;28;20971;-79
2021/06/18 08:53:38;;;;;;;7.57;5.03;;;25.00;99.90;;;25.88;100.00;97866.97;5069011;28;20452;-79
2021/06/18 08:56:07;;;;;;;8.83;4.90;;;25.10;99.90;;;25.94;100.00;97873.84;5069319;28;20513;-79
2021/06/18 08:58:37;;;;;;;7.60;5.40;;;25.10;99.90;;;26.02;100.00;97865.16;5068976;28;21006;-79
2021/06/18 09:01:06;;;;;;;11.73;5.47;;;25.20;99.90;;;26.09;100.00;97867.47;5067832;28;20456;-79
2021/06/18 09:03:45;;;;;;;11.30;5.13;;;25.30;99.90;;;26.19;100.00;97866.53;5069024;28;20792;-78
2021/06/18 09:06:32;;;;;;;9.23;5.17;;;25.40;99.90;;;26.27;100.00;97869.38;5068752;28;20533;-78
2021/06/18 09:09:16;;;;;;;6.50;4.23;;;25.50;99.90;;;26.34;100.00;97874.34;5068915;28;20805;-78
2021/06/18 09:11:49;;;;;;;7.07;4.97;;;25.60;99.90;;;26.37;100.00;97874.56;5062921;28;20487;-78
2021/06/18 09:14:29;;;;;;;6.67;4.93;;;25.60;99.90;;;26.46;100.00;97872.00;5065583;28;21010;-78
2021/06/18 09:17:11;;;;;;;10.30;5.10;;;25.70;99.90;;;26.48;100.00;97875.19;5067898;28;20464;-78
2021/06/18 09:19:46;;;;;;;12.13;5.70;;;25.70;99.90;;;26.55;100.00;97872.13;5069554;28;20448;-78
2021/06/18 09:22:18;;;;;;;12.13;5.90;;;25.70;99.90;;;26.60;100.00;97874.72;5068565;28;20444;-78
2021/06/18 09:24:56;;;;;;;12.20;5.40;;;25.80;99.90;;;26.62;100.00;97870.66;5068647;28;20452;-78
2021/06/18 09:27:32;;;;;;;12.03;4.50;;;25.80;99.90;;;26.62;100.00;97872.53;5068139;28;20448;-78
2021/06/18 09:30:22;;;;;;;19.67;4.60;;;25.80;99.90;;;26.67;100.00;97885.84;5067219;28;20448;-79
2021/06/18 09:33:05;;;;;;;10.57;5.00;;;25.90;99.90;;;26.66;100.00;97893.09;5064536;28;20450;-78
2021/06/18 09:35:35;;;;;;;9.60;4.93;;;25.90;99.90;;;26.70;100.00;97904.03;5068450;28;20513;-78
2021/06/18 09:38:07;;;;;;;8.63;5.20;;;26.00;99.90;;;26.73;100.00;97898.09;5068982;28;20485;-78
2021/06/18 09:40:36;;;;;;;10.60;5.40;;;26.00;99.90;;;26.74;100.00;97902.38;5068760;28;20447;-78
2021/06/18 09:43:12;;;;;;;15.60;5.93;;;26.00;99.90;;;26.80;100.00;97898.50;5068453;28;20459;-78
2021/06/18 09:45:44;;;;;;;7.73;5.00;;;26.00;99.90;;;26.77;100.00;97899.09;5068545;28;20941;-78
2021/06/18 09:48:16;;;;;;;7.97;5.07;;;26.00;99.90;;;26.87;100.00;97901.63;5064685;28;20452;-78
2021/06/18 09:50:48;;;;;;;13.80;5.30;;;26.10;99.90;;;26.90;100.00;97899.16;5068722;28;20530;-79
2021/06/18 09:53:21;;;;;;;9.73;5.17;;;26.10;99.90;;;26.93;99.71;97897.78;5069347;28;20467;-78
2021/06/18 09:56:03;;;;;;;16.70;5.90;;;26.10;99.90;;;27.02;100.00;97901.38;5068630;28;20455;-78
2021/06/18 09:58:35;;;;;;;13.63;5.73;;;26.20;99.90;;;27.06;99.84;97897.00;5068252;28;20456;-78
2021/06/18 10:01:24;;;;;;;11.80;5.30;;;26.30;99.90;;;27.17;97.05;97897.59;5068424;28;20819;-78
2021/06/18 10:04:02;;;;;;;11.13;4.50;;;26.40;99.90;;;27.21;95.84;97888.66;5064319;28;20448;-79
2021/06/18 10:06:33;;;;;;;10.73;4.60;;;26.50;99.90;;;27.29;95.25;97900.56;5069061;28;20486;-79
2021/06/18 10:09:04;;;;;;;7.83;4.80;;;26.60;99.90;;;27.30;95.91;97902.97;5072311;28;20444;-79
2021/06/18 10:11:35;;;;;;;7.60;4.83;;;26.60;99.90;;;27.29;99.88;97901.38;5071920;28;20878;-78
2021/06/18 10:14:04;;;;;;;11.87;5.17;;;26.50;99.90;;;27.29;95.36;97900.56;5072841;28;20452;-78
2021/06/18 10:16:34;;;;;;;6.77;4.33;;;26.50;99.90;;;27.35;96.00;97904.78;5071970;28;20463;-78
2021/06/18 10:19:04;;;;;;;8.50;4.77;;;26.50;99.90;;;27.38;98.64;97907.66;5065646;28;20444;-78
2021/06/18 10:21:47;;;;;;;9.37;4.67;;;26.60;99.90;;;27.40;100.00;97908.16;5066033;28;20583;-79
2021/06/18 10:24:32;;;;;;;11.03;4.90;;;26.60;99.90;;;27.39;100.00;97914.59;5072691;28;20902;-78
2021/06/18 10:27:11;;;;;;;8.80;4.60;;;26.60;99.90;;;27.38;100.00;97915.72;5067352;28;20459;-78